createdAt,value
2019-04-04T00:01:36.317Z,43.10
2019-04-04T00:04:05.030Z,38.43
2019-04-04T00:06:33.466Z,29.80
2019-04-04T00:09:02.497Z,27.97
2019-04-04T00:11:31.301Z,26.80
2019-04-04T00:13:59.754Z,28.77
2019-04-04T00:16:28.178Z,28.57
2019-04-04T00:18:58.444Z,25.73
2019-04-04T00:21:27.042Z,26.17
2019-04-04T00:23:55.478Z,23.77
2019-04-04T00:26:23.918Z,22.80
2019-04-04T00:28:52.360Z,17.87
2019-04-04T00:31:20.781Z,19.47
2019-04-04T00:33:49.209Z,18.53
2019-04-04T00:36:17.646Z,17.17
2019-04-04T00:38:46.083Z,18.07
2019-04-04T00:41:14.522Z,18.77
2019-04-04T00:43:44.352Z,21.57
2019-04-04T00:46:12.785Z,20.27
2019-04-04T00:48:41.254Z,18.47
2019-04-04T00:51:09.694Z,21.00
2019-04-04T00:53:38.118Z,18.60
2019-04-04T00:56:06.557Z,18.33
2019-04-04T00:58:35.082Z,19.33
2019-04-04T01:01:04.377Z,16.23
2019-04-04T01:03:32.910Z,16.03
2019-04-04T01:06:03.470Z,16.80
2019-04-04T01:08:31.659Z,17.90
2019-04-04T01:11:00.100Z,15.83
2019-04-04T01:13:28.526Z,17.10
2019-04-04T01:15:56.961Z,15.90
2019-04-04T01:18:25.465Z,17.67
2019-04-04T01:20:54.181Z,15.20
2019-04-04T01:23:22.610Z,14.40
2019-04-04T01:25:51.058Z,15.67
2019-04-04T01:28:19.477Z,15.77
2019-04-04T01:30:47.923Z,13.27
2019-04-04T01:33:16.350Z,15.30
2019-04-04T01:35:44.801Z,15.40
2019-04-04T01:38:13.229Z,12.70
2019-04-04T01:40:41.804Z,13.80
2019-04-04T01:43:10.791Z,12.80
2019-04-04T01:45:39.218Z,14.77
2019-04-04T01:48:07.666Z,14.87
2019-04-04T01:50:36.082Z,15.27
2019-04-04T01:53:04.517Z,15.57
2019-04-04T01:55:34.914Z,14.00
2019-04-04T01:58:03.238Z,14.47
2019-04-04T02:00:31.659Z,15.40
2019-04-04T02:03:00.095Z,15.03
2019-04-04T02:05:28.522Z,12.70
2019-04-04T02:07:58.831Z,14.33
2019-04-04T02:10:27.284Z,15.13
2019-04-04T02:12:55.726Z,15.63
2019-04-04T02:15:24.152Z,14.47
2019-04-04T02:17:52.989Z,15.30
2019-04-04T02:20:22.002Z,14.10
2019-04-04T02:22:50.434Z,14.77
2019-04-04T02:25:18.861Z,15.60
2019-04-04T02:27:47.294Z,15.13
2019-04-04T02:30:16.446Z,15.30
2019-04-04T02:32:45.135Z,15.47
2019-04-04T02:35:13.570Z,14.20
2019-04-04T02:37:42.195Z,14.63
2019-04-04T02:40:12.430Z,14.10
2019-04-04T02:42:41.166Z,13.80
2019-04-04T02:45:10.044Z,14.20
2019-04-04T02:47:38.563Z,14.57
2019-04-04T02:50:07.800Z,14.90
2019-04-04T02:52:36.233Z,15.63
2019-04-04T02:55:05.791Z,15.10
2019-04-04T02:57:34.276Z,15.73
2019-04-04T03:00:04.015Z,15.60
2019-04-04T03:02:36.149Z,15.87
2019-04-04T03:05:02.992Z,14.03
2019-04-04T03:07:31.421Z,13.90
2019-04-04T03:09:59.867Z,15.67
2019-04-04T03:12:28.289Z,15.60
2019-04-04T03:14:56.725Z,14.40
2019-04-04T03:17:25.154Z,14.93
2019-04-04T03:19:53.705Z,14.37
2019-04-04T03:22:22.201Z,15.33
2019-04-04T03:24:50.639Z,15.07
2019-04-04T03:27:19.070Z,15.00
2019-04-04T03:29:47.557Z,15.67
2019-04-04T03:32:16.719Z,16.13
2019-04-04T03:34:49.875Z,15.70
2019-04-04T03:37:16.192Z,14.30
2019-04-04T03:39:44.697Z,15.50
2019-04-04T03:42:13.218Z,16.13
2019-04-04T03:44:41.769Z,17.23
2019-04-04T03:47:11.259Z,16.27
2019-04-04T03:49:39.917Z,15.73
2019-04-04T03:52:11.220Z,16.30
2019-04-04T03:54:38.518Z,14.60
2019-04-04T03:57:11.118Z,16.10
2019-04-04T03:59:37.111Z,16.40
2019-04-04T04:02:05.536Z,15.73
2019-04-04T04:04:36.094Z,17.97
2019-04-04T04:07:04.585Z,17.17
2019-04-04T04:09:33.014Z,17.60
2019-04-04T04:12:01.437Z,16.67
2019-04-04T04:14:29.873Z,16.80
2019-04-04T04:16:58.355Z,17.47
2019-04-04T04:19:31.011Z,18.20
2019-04-04T04:21:58.069Z,16.77
2019-04-04T04:24:29.458Z,17.63
2019-04-04T04:26:56.773Z,17.80
2019-04-04T04:29:29.534Z,18.07
2019-04-04T04:31:55.542Z,17.10
2019-04-04T04:34:23.974Z,17.00
2019-04-04T04:36:52.414Z,17.73
2019-04-04T04:39:20.967Z,17.70
2019-04-04T04:41:53.098Z,18.30
2019-04-04T04:44:19.555Z,17.77
2019-04-04T04:46:50.263Z,17.03
2019-04-04T04:49:18.266Z,18.80
2019-04-04T04:51:46.706Z,17.10
2019-04-04T04:54:15.137Z,18.50
2019-04-04T04:56:43.574Z,17.57
2019-04-04T04:59:13.310Z,18.30
2019-04-04T05:01:42.222Z,16.40
2019-04-04T05:04:10.646Z,18.30
2019-04-04T05:06:39.078Z,16.93
2019-04-04T05:09:07.746Z,16.80
2019-04-04T05:11:36.189Z,16.30
2019-04-04T05:14:04.623Z,18.70
2019-04-04T05:16:33.058Z,20.37
2019-04-04T05:19:01.491Z,20.67
2019-04-04T05:21:29.939Z,19.43
2019-04-04T05:23:58.397Z,20.03
2019-04-04T05:26:26.906Z,21.63
2019-04-04T05:28:56.902Z,20.37
2019-04-04T05:31:25.517Z,20.20
2019-04-04T05:33:53.943Z,19.70
2019-04-04T05:36:22.626Z,22.27
2019-04-04T05:38:52.581Z,21.70
2019-04-04T05:41:21.197Z,22.47
2019-04-04T05:43:51.837Z,21.00
2019-04-04T05:46:20.358Z,22.40
2019-04-04T05:48:48.902Z,21.40
2019-04-04T05:51:17.465Z,19.83
2019-04-04T05:53:45.962Z,19.33
2019-04-04T05:56:15.170Z,18.93
2019-04-04T05:58:44.701Z,19.50
2019-04-04T06:01:18.614Z,18.87
2019-04-04T06:03:47.926Z,18.53
2019-04-04T06:06:16.677Z,18.80
2019-04-04T06:08:45.119Z,18.40
2019-04-04T06:11:13.546Z,21.17
2019-04-04T06:13:42.170Z,20.17
2019-04-04T06:16:12.919Z,20.33
2019-04-04T06:18:43.025Z,22.63
2019-04-04T06:21:11.658Z,21.17
2019-04-04T06:23:40.562Z,20.00
2019-04-04T06:26:09.046Z,21.50
2019-04-04T06:28:37.483Z,21.20
2019-04-04T06:31:06.362Z,21.80
2019-04-04T06:33:35.302Z,19.33
2019-04-04T06:36:05.450Z,21.40
2019-04-04T06:38:33.918Z,22.30
2019-04-04T06:41:02.541Z,24.03
2019-04-04T06:43:30.972Z,23.93
2019-04-04T06:45:59.402Z,23.20
2019-04-04T06:48:29.414Z,22.90
2019-04-04T06:50:57.994Z,23.63
2019-04-04T06:53:26.437Z,22.90
2019-04-04T06:55:54.858Z,24.27
2019-04-04T06:58:23.294Z,25.17
2019-04-04T07:00:51.862Z,23.37
2019-04-04T07:03:20.398Z,22.80
2019-04-04T07:05:48.828Z,22.53
2019-04-04T07:08:17.258Z,23.57
2019-04-04T07:10:57.374Z,21.70
2019-04-04T07:13:22.233Z,21.67
2019-04-04T07:15:48.530Z,21.23
2019-04-04T07:18:16.262Z,21.57
2019-04-04T07:20:48.037Z,20.53
2019-04-04T07:23:14.950Z,21.27
2019-04-04T07:25:43.381Z,19.57
2019-04-04T07:28:11.817Z,18.80
2019-04-04T07:30:40.263Z,20.30
2019-04-04T07:33:10.060Z,21.10
2019-04-04T07:35:38.845Z,19.40
2019-04-04T07:38:07.273Z,16.73
2019-04-04T07:40:37.106Z,20.70
2019-04-04T07:43:08.494Z,17.20
2019-04-04T07:45:36.022Z,19.50
2019-04-04T07:48:04.606Z,15.20
2019-04-04T07:50:33.044Z,16.17
2019-04-04T07:53:03.924Z,17.77
2019-04-04T07:55:31.636Z,17.00
2019-04-04T07:58:00.133Z,16.47
2019-04-04T08:00:28.744Z,15.50
2019-04-04T08:02:57.179Z,14.70
2019-04-04T08:05:25.618Z,16.30
2019-04-04T08:08:13.392Z,17.27
2019-04-04T08:10:41.826Z,15.13
2019-04-04T08:13:10.250Z,16.90
2019-04-04T08:15:38.685Z,16.00
2019-04-04T08:18:07.121Z,15.30
2019-04-04T08:20:35.562Z,17.83
2019-04-04T08:23:03.990Z,15.20
2019-04-04T08:25:32.432Z,22.40
2019-04-04T08:28:00.871Z,16.13
2019-04-04T08:30:29.304Z,16.13
2019-04-04T08:32:57.729Z,17.00
2019-04-04T08:35:26.154Z,16.63
2019-04-04T08:37:54.591Z,15.63
2019-04-04T08:40:23.062Z,15.83
2019-04-04T08:42:51.506Z,16.73
2019-04-04T08:45:19.934Z,15.27
2019-04-04T08:47:48.371Z,15.20
2019-04-04T08:50:16.897Z,14.20
2019-04-04T08:52:45.602Z,14.70
2019-04-04T08:55:14.030Z,13.47
2019-04-04T08:57:42.465Z,15.80
2019-04-04T09:00:11.638Z,14.17
2019-04-04T09:02:40.073Z,14.30
2019-04-04T09:05:12.372Z,13.47
2019-04-04T09:07:38.770Z,15.20
2019-04-04T09:10:08.246Z,14.43
2019-04-04T09:12:36.677Z,14.30
2019-04-04T09:15:07.446Z,13.33
2019-04-04T09:17:35.882Z,15.43
2019-04-04T09:20:09.560Z,14.00
2019-04-04T09:22:37.887Z,12.70
2019-04-04T09:25:10.478Z,13.87
2019-04-04T09:27:38.905Z,12.60
2019-04-04T09:30:11.214Z,13.37
2019-04-04T09:32:39.650Z,12.50
2019-04-04T09:35:09.217Z,13.70
2019-04-04T09:37:37.681Z,13.80
2019-04-04T09:40:09.023Z,13.63
2019-04-04T09:42:37.458Z,13.60
2019-04-04T09:45:07.899Z,14.50
2019-04-04T09:47:39.285Z,14.80
2019-04-04T09:50:08.953Z,12.63
2019-04-04T09:52:38.810Z,12.87
2019-04-04T09:55:09.229Z,13.13
2019-04-04T09:57:37.806Z,12.83
2019-04-04T10:00:14.530Z,12.43
2019-04-04T10:02:43.326Z,13.17
2019-04-04T10:05:12.500Z,13.90
2019-04-04T10:07:40.934Z,13.70
2019-04-04T10:10:11.113Z,13.00
2019-04-04T10:12:39.547Z,13.50
2019-04-04T10:15:10.049Z,12.67
2019-04-04T10:17:38.486Z,13.63
2019-04-04T10:20:07.833Z,13.30
2019-04-04T10:22:36.265Z,14.10
2019-04-04T10:25:05.669Z,13.10
2019-04-04T10:27:34.670Z,12.57
2019-04-04T10:30:03.980Z,15.07
2019-04-04T10:32:32.441Z,14.00
2019-04-04T10:35:00.883Z,12.70
2019-04-04T10:37:29.314Z,14.20
2019-04-04T10:39:57.862Z,14.17
2019-04-04T10:42:26.305Z,15.00
2019-04-04T10:44:54.732Z,13.73
2019-04-04T10:47:23.173Z,12.13
2019-04-04T10:49:51.731Z,14.37
2019-04-04T10:52:20.169Z,14.03
2019-04-04T10:54:48.613Z,13.40
2019-04-04T10:57:17.057Z,13.60
2019-04-04T10:59:45.491Z,14.20
2019-04-04T11:02:13.981Z,14.40
2019-04-04T11:04:42.616Z,13.77
2019-04-04T11:07:11.064Z,15.07
2019-04-04T11:09:42.210Z,14.37
2019-04-04T11:12:09.748Z,14.83
2019-04-04T11:14:38.430Z,14.50
2019-04-04T11:17:06.874Z,13.90
2019-04-04T11:19:35.317Z,15.00
2019-04-04T11:22:03.885Z,14.20
2019-04-04T11:24:32.533Z,17.37
2019-04-04T11:27:00.981Z,13.57
2019-04-04T11:29:29.410Z,15.47
2019-04-04T11:31:57.865Z,15.07
2019-04-04T11:34:26.289Z,14.20
2019-04-04T11:36:55.389Z,15.80
2019-04-04T11:39:23.829Z,16.63
2019-04-04T11:41:52.261Z,16.67
2019-04-04T11:44:20.697Z,15.40
2019-04-04T11:46:50.444Z,16.00
2019-04-04T11:49:18.845Z,16.30
2019-04-04T11:51:47.290Z,14.40
2019-04-04T11:54:15.866Z,13.60
2019-04-04T11:56:44.293Z,13.60
2019-04-04T11:59:12.738Z,14.37
2019-04-04T12:01:45.550Z,14.53
2019-04-04T12:04:13.994Z,15.20
2019-04-04T12:06:42.428Z,16.57
2019-04-04T12:09:10.863Z,16.53
2019-04-04T12:11:39.295Z,15.33
2019-04-04T12:14:07.739Z,15.57
2019-04-04T12:16:36.177Z,17.20
2019-04-04T12:19:04.617Z,14.77
2019-04-04T12:21:33.048Z,15.10
2019-04-04T12:24:01.546Z,14.43
2019-04-04T12:26:31.206Z,15.60
2019-04-04T12:28:59.657Z,16.40
2019-04-04T12:31:28.080Z,14.67
2019-04-04T12:33:58.294Z,16.83
2019-04-04T12:36:26.728Z,16.40
2019-04-04T12:38:55.161Z,15.53
2019-04-04T12:41:23.601Z,15.20
2019-04-04T12:43:53.459Z,15.50
2019-04-04T12:46:22.081Z,15.10
2019-04-04T12:48:50.525Z,15.97
2019-04-04T12:51:18.961Z,15.23
2019-04-04T12:53:47.411Z,16.73
2019-04-04T12:56:15.848Z,17.27
2019-04-04T12:58:44.281Z,16.80
2019-04-04T13:01:12.718Z,15.93
2019-04-04T13:03:41.148Z,16.40
2019-04-04T13:06:09.654Z,17.33
2019-04-04T13:08:38.093Z,18.40
2019-04-04T13:11:06.538Z,16.33
2019-04-04T13:13:34.973Z,16.10
2019-04-04T13:16:03.415Z,16.33
2019-04-04T13:18:31.917Z,16.50
2019-04-04T13:21:01.533Z,18.17
2019-04-04T13:23:29.961Z,18.43
2019-04-04T13:25:58.402Z,18.43
2019-04-04T13:28:26.830Z,17.77
2019-04-04T13:30:55.274Z,16.33
2019-04-04T13:33:23.707Z,16.50
2019-04-04T13:35:52.145Z,18.30
2019-04-04T13:38:20.586Z,17.20
2019-04-04T13:40:49.032Z,18.90
2019-04-04T13:43:17.471Z,17.50
2019-04-04T13:45:45.919Z,19.10
2019-04-04T13:48:14.345Z,17.10
2019-04-04T13:50:42.792Z,19.67
2019-04-04T13:53:11.443Z,17.20
2019-04-04T13:55:40.253Z,18.60
2019-04-04T13:58:08.689Z,16.40
2019-04-04T14:00:37.259Z,17.70
2019-04-04T14:03:05.706Z,19.17
2019-04-04T14:05:34.134Z,18.83
2019-04-04T14:08:04.217Z,18.00
2019-04-04T14:10:32.652Z,19.10
2019-04-04T14:13:01.093Z,17.63
2019-04-04T14:15:29.678Z,18.43
2019-04-04T14:17:58.121Z,19.00
2019-04-04T14:20:26.552Z,19.33
2019-04-04T14:22:55.001Z,18.13
2019-04-04T14:25:23.439Z,18.13
2019-04-04T14:27:52.045Z,19.00
2019-04-04T14:30:20.917Z,17.83
2019-04-04T14:32:50.994Z,20.00
2019-04-04T14:35:19.423Z,19.73
2019-04-04T14:37:47.861Z,19.23
2019-04-04T14:40:16.325Z,18.80
2019-04-04T14:42:44.835Z,19.60
2019-04-04T14:45:13.614Z,20.90
2019-04-04T14:47:43.690Z,19.10
2019-04-04T14:50:12.123Z,18.77
2019-04-04T14:52:40.570Z,20.47
2019-04-04T14:55:10.134Z,22.40
2019-04-04T14:57:38.577Z,21.73
2019-04-04T15:00:10.062Z,22.80
2019-04-04T15:02:38.501Z,22.37
2019-04-04T15:05:07.378Z,21.03
2019-04-04T15:07:35.817Z,19.10
2019-04-04T15:10:05.085Z,20.30
2019-04-04T15:12:33.520Z,21.10
2019-04-04T15:15:02.129Z,20.03
2019-04-04T15:17:30.557Z,22.37
2019-04-04T15:19:59.567Z,21.60
2019-04-04T15:22:27.998Z,21.60
2019-04-04T15:24:56.450Z,20.87
2019-04-04T15:27:24.877Z,22.37
2019-04-04T15:29:53.321Z,21.63
2019-04-04T15:32:21.758Z,23.70
2019-04-04T15:34:50.202Z,22.27
2019-04-04T15:37:18.641Z,26.87
2019-04-04T15:39:47.149Z,23.50
2019-04-04T15:42:15.581Z,27.60
2019-04-04T15:44:44.021Z,26.97
2019-04-04T15:47:12.464Z,26.50
2019-04-04T15:49:40.902Z,23.67
2019-04-04T15:52:09.369Z,25.23
2019-04-04T15:54:38.329Z,27.40
2019-04-04T15:57:06.733Z,25.67
2019-04-04T15:59:35.217Z,26.20
2019-04-04T16:02:04.085Z,24.70
2019-04-04T16:04:32.529Z,23.37
2019-04-04T16:07:00.965Z,21.77
2019-04-04T16:09:29.428Z,22.03
2019-04-04T16:11:58.230Z,20.50
2019-04-04T16:14:26.694Z,24.57
2019-04-04T16:16:55.142Z,21.83
2019-04-04T16:19:23.927Z,21.17
2019-04-04T16:21:52.925Z,22.70
2019-04-04T16:24:21.403Z,23.70
2019-04-04T16:26:49.830Z,22.77
2019-04-04T16:29:18.277Z,22.03
2019-04-04T16:31:46.717Z,22.50
2019-04-04T16:34:15.158Z,24.47
2019-04-04T16:36:43.595Z,24.10
2019-04-04T16:39:12.029Z,22.37
2019-04-04T16:41:40.597Z,24.37
2019-04-04T16:44:09.043Z,23.00
2019-04-04T16:46:37.559Z,23.00
2019-04-04T16:49:05.990Z,22.40
2019-04-04T16:51:34.434Z,22.87
2019-04-04T16:54:02.867Z,21.53
2019-04-04T16:56:31.322Z,22.40
2019-04-04T16:58:59.758Z,23.80
2019-04-04T17:01:28.206Z,22.37
2019-04-04T17:04:01.835Z,22.43
2019-04-04T17:06:28.303Z,21.10
2019-04-04T17:08:57.956Z,20.23
2019-04-04T17:11:27.218Z,18.10
2019-04-04T17:13:55.650Z,16.47
2019-04-04T17:16:24.095Z,13.70
2019-04-04T17:18:52.525Z,14.07
2019-04-04T17:21:20.966Z,14.77
2019-04-04T17:23:49.402Z,14.60
2019-04-04T17:26:17.841Z,15.03
2019-04-04T17:28:46.770Z,12.67
2019-04-04T17:31:15.780Z,13.77
2019-04-04T17:33:45.856Z,14.43
2019-04-04T17:36:14.737Z,13.53
2019-04-04T17:38:43.174Z,13.60
2019-04-04T17:41:12.073Z,13.67
2019-04-04T17:43:40.801Z,11.97
2019-04-04T17:46:09.286Z,13.60
2019-04-04T17:48:38.018Z,12.00
2019-04-04T17:51:06.874Z,13.00
2019-04-04T17:53:35.466Z,13.23
2019-04-04T17:56:04.236Z,14.80
2019-04-04T17:58:32.662Z,11.37
2019-04-04T18:01:01.449Z,11.93
2019-04-04T18:03:29.881Z,13.50
2019-04-04T18:05:58.323Z,14.83
2019-04-04T18:08:26.767Z,12.07
2019-04-04T18:10:55.664Z,11.37
2019-04-04T18:13:24.186Z,11.57
2019-04-04T18:15:52.667Z,15.23
2019-04-04T18:18:26.910Z,10.90
2019-04-04T18:20:55.397Z,12.77
2019-04-04T18:23:23.992Z,12.70
2019-04-04T18:25:52.442Z,13.10
2019-04-04T18:28:20.893Z,13.17
2019-04-04T18:30:49.319Z,13.03
2019-04-04T18:33:19.268Z,14.70
2019-04-04T18:35:47.918Z,13.77
2019-04-04T18:38:16.371Z,14.33
2019-04-04T18:40:44.861Z,14.33
2019-04-04T18:43:13.301Z,13.00
2019-04-04T18:45:41.733Z,13.57
2019-04-04T18:48:10.194Z,12.63
2019-04-04T18:50:39.798Z,14.57
2019-04-04T18:53:08.234Z,12.77
2019-04-04T18:55:38.825Z,14.07
2019-04-04T18:58:07.290Z,15.07
2019-04-04T19:00:36.106Z,14.07
2019-04-04T19:03:04.924Z,14.40
2019-04-04T19:05:33.358Z,17.07
2019-04-04T19:08:01.934Z,15.83
2019-04-04T19:10:30.401Z,14.53
2019-04-04T19:13:05.144Z,13.63
2019-04-04T19:15:29.084Z,14.50
2019-04-04T19:17:57.521Z,16.43
2019-04-04T19:20:27.282Z,14.67
2019-04-04T19:22:55.734Z,12.63
2019-04-04T19:25:24.154Z,12.53
2019-04-04T19:27:52.596Z,15.47
2019-04-04T19:30:21.672Z,12.70
2019-04-04T19:32:50.110Z,14.00
2019-04-04T19:35:18.555Z,13.90
2019-04-04T19:37:54.418Z,15.00
2019-04-04T19:40:17.886Z,15.43
2019-04-04T19:42:46.314Z,14.63
2019-04-04T19:45:21.172Z,15.53
2019-04-04T19:47:49.092Z,14.63
2019-04-04T19:50:17.721Z,15.50
2019-04-04T19:52:46.157Z,13.93
2019-04-04T19:55:15.755Z,13.87
2019-04-04T19:57:44.189Z,15.57
2019-04-04T20:00:13.573Z,14.17
2019-04-04T20:02:44.012Z,15.43
2019-04-04T20:05:12.294Z,15.10
2019-04-04T20:07:40.728Z,16.20
2019-04-04T20:10:09.801Z,17.17
2019-04-04T20:12:38.233Z,16.80
2019-04-04T20:15:07.827Z,18.13
2019-04-04T20:17:36.254Z,18.87
2019-04-04T20:20:06.995Z,22.10
2019-04-04T20:22:35.428Z,19.13
2019-04-04T20:25:06.282Z,19.40
2019-04-04T20:27:34.714Z,19.47
2019-04-04T20:30:04.823Z,18.20
2019-04-04T20:32:33.538Z,25.47
2019-04-04T20:35:02.062Z,20.63
2019-04-04T20:37:30.534Z,22.73
2019-04-04T20:39:59.099Z,24.63
2019-04-04T20:42:27.713Z,21.97
2019-04-04T20:44:56.146Z,21.70
2019-04-04T20:47:24.573Z,23.20
2019-04-04T20:49:53.025Z,21.87
2019-04-04T20:52:21.453Z,22.30
2019-04-04T20:54:49.891Z,23.13
2019-04-04T20:57:19.645Z,23.20
2019-04-04T20:59:48.078Z,22.87
2019-04-04T21:02:17.629Z,24.57
2019-04-04T21:04:46.054Z,23.07
2019-04-04T21:07:14.492Z,24.47
2019-04-04T21:09:42.922Z,24.77
2019-04-04T21:12:11.561Z,23.20
2019-04-04T21:14:40.171Z,24.07
2019-04-04T21:17:08.601Z,23.97
2019-04-04T21:19:37.029Z,23.40
2019-04-04T21:22:05.475Z,24.20
2019-04-04T21:24:33.901Z,24.93
2019-04-04T21:27:02.339Z,24.80
2019-04-04T21:29:30.767Z,26.20
2019-04-04T21:31:59.205Z,24.60
2019-04-04T21:34:27.648Z,26.27
2019-04-04T21:36:56.146Z,25.13
2019-04-04T21:39:25.991Z,24.40
2019-04-04T21:41:54.421Z,26.67
2019-04-04T21:44:22.846Z,27.37
2019-04-04T21:46:51.453Z,26.87
2019-04-04T21:49:19.873Z,27.03
2019-04-04T21:51:48.322Z,27.13
2019-04-04T21:54:16.887Z,26.57
2019-04-04T21:56:45.317Z,27.73
2019-04-04T21:59:13.747Z,29.60
2019-04-04T22:01:42.182Z,27.20
2019-04-04T22:04:10.658Z,30.07
2019-04-04T22:06:39.121Z,28.27
2019-04-04T22:09:09.875Z,29.70
2019-04-04T22:11:38.307Z,29.80
2019-04-04T22:14:06.743Z,29.73
2019-04-04T22:16:35.215Z,28.30
2019-04-04T22:19:04.531Z,28.33
2019-04-04T22:21:32.958Z,29.07
2019-04-04T22:24:01.395Z,28.87
2019-04-04T22:26:29.946Z,29.30
2019-04-04T22:28:58.393Z,29.77
2019-04-04T22:31:26.813Z,31.30
2019-04-04T22:33:55.255Z,29.10
2019-04-04T22:36:23.681Z,27.17
2019-04-04T22:38:52.154Z,28.57
2019-04-04T22:41:20.675Z,27.40
2019-04-04T22:44:02.847Z,28.40
2019-04-04T22:46:21.841Z,29.17
2019-04-04T22:48:50.277Z,29.27
2019-04-04T22:51:18.708Z,27.57
2019-04-04T22:53:47.141Z,29.93
2019-04-04T22:56:15.571Z,31.37
2019-04-04T22:58:44.005Z,29.70
2019-04-04T23:01:12.554Z,30.73
2019-04-04T23:03:40.994Z,31.00
2019-04-04T23:06:09.414Z,33.17
2019-04-04T23:08:37.850Z,31.03
2019-04-04T23:11:06.281Z,36.60
2019-04-04T23:13:34.708Z,34.90
2019-04-04T23:16:03.140Z,38.07
2019-04-04T23:18:33.110Z,39.27
2019-04-04T23:21:01.740Z,41.30
2019-04-04T23:23:30.169Z,41.60
2019-04-04T23:25:58.601Z,39.03
2019-04-04T23:28:27.026Z,44.10
2019-04-04T23:30:55.470Z,45.70
2019-04-04T23:33:23.913Z,44.70
2019-04-04T23:35:52.531Z,45.90
2019-04-04T23:38:20.962Z,49.90
2019-04-04T23:40:49.402Z,51.23
2019-04-04T23:43:17.830Z,52.30
2019-04-04T23:45:46.268Z,45.53
2019-04-04T23:48:14.869Z,51.93
2019-04-04T23:50:43.310Z,52.10
2019-04-04T23:53:11.746Z,48.80
2019-04-04T23:55:40.185Z,48.73
2019-04-04T23:58:08.613Z,50.27
